Terminal Aerodrome Forecast
Issued by NWS

Home | Current Version | Previous Version | Text Only | Print | Product List | Glossary On
Versions: 1 2 3 4 5 6 7 8 9 10 11 12 13 14 15 16 17 18 19 20
000
FTUS41 KBGM 121335 AAA
TAFITH
TAF AMD
KITH 121335Z 1214/1312 17011KT 5SM -SN BR BKN015 OVC025
      TEMPO 1214/1215 2SM -SN BR OVC007
     FM121500 23009KT P6SM OVC015
     FM121700 29009G18KT 2SM -SHSN OVC009
     FM121900 29013G22KT 3SM -SN BLSN OVC020
     FM130000 29014G24KT P6SM BKN050
     FM130700 29012G21KT 2SM -SN BLSN OVC015=

USA.gov is the U.S. government's official web portal to all federal, state and local government web resources and services.